Wednesday, February 22, 2017, 12:28 PM EST
Back to Local

KPTW, Pottstown Limerick Airport

Location: Royersford, PA, United States Lat: 40.233
Local Time: 12:28 PM EST (17:28 GMT) Lon: -75.55
Time Zone: US/Eastern Elev: 291 ft

Show me the last for .
Show Decoded

2017-02-22 11:54 METAR KPTW 221654Z AUTO 00000KT 8SM CLR 11/03 A2999 RMK AO2 SLP153 T01110033
                 TSNO =
2017-02-22 10:54 METAR KPTW 221554Z AUTO 00000KT 8SM CLR 10/03 A3002 RMK AO2 SLP164 T01000033
                 TSNO =
2017-02-22 09:54 METAR KPTW 221454Z AUTO VRB03KT 8SM CLR 07/03 A3004 RMK AO2 SLP171 T00720028
                 58003 TSNO =
2017-02-22 08:54 METAR KPTW 221354Z AUTO 00000KT 9SM OVC090 06/02 A3005 RMK AO2 SLP174 T00610022
                 TSNO =
2017-02-22 07:54 METAR KPTW 221254Z AUTO 00000KT 8SM BKN085 05/02 A3006 RMK AO2 SLP179 T00500017
                 TSNO =
2017-02-22 06:54 METAR KPTW 221154Z AUTO 00000KT 9SM BKN090 04/02 A3005 RMK AO2 SLP174 T00440017
                 10050 20039 58003 TSNO =
2017-02-22 05:54 METAR KPTW 221054Z AUTO 00000KT 9SM BKN090 OVC120 04/02 A3006 RMK AO2 SLP178
                 T00440017 TSNO =
2017-02-22 04:54 METAR KPTW 220954Z AUTO 00000KT 9SM BKN085 BKN100 04/02 A3006 RMK AO2 SLP180
                 T00390017 TSNO =
2017-02-21 15:54 METAR KPTW 212054Z AUTO 19006KT 10SM CLR 09/M04 A3020 RMK AO2 SLP227 T00891039
                 56027 TSNO =
2017-02-21 14:54 METAR KPTW 211954Z AUTO 18005KT 10SM CLR 09/M04 A3023 RMK AO2 SLP238 T00891039
                 TSNO =
2017-02-21 13:54 METAR KPTW 211854Z AUTO 20005KT 10SM CLR 09/M03 A3024 RMK AO2 SLP239 T00941028
                 TSNO =
2017-02-21 12:54 METAR KPTW 211754Z AUTO 19006KT 10SM CLR 08/M03 A3028 RMK AO2 SLP254 T00781028
                 10083 21028 58023 TSNO =

Support USWX by starting your Amazon purchase here.